createdAt,value
2018-04-02T15:03:59.800Z,36.64
2018-04-02T15:06:26.481Z,36.43
2018-04-02T15:08:53.615Z,36.09
2018-04-02T15:11:20.758Z,35.64
2018-04-02T15:13:47.532Z,35.26
2018-04-02T15:16:14.134Z,35.34
2018-04-02T15:18:41.417Z,35.25
2018-04-02T15:21:08.745Z,34.62
2018-04-02T15:23:36.660Z,34.74
2018-04-02T15:26:03.516Z,34.69
2018-04-02T15:28:30.535Z,34.81
2018-04-02T15:30:58.019Z,34.47
2018-04-02T15:33:24.887Z,35.00
2018-04-02T15:35:51.857Z,35.33
2018-04-02T15:38:19.784Z,35.54
2018-04-02T15:40:46.780Z,35.84
2018-04-02T15:43:13.978Z,35.58
2018-04-02T15:45:41.556Z,35.66
2018-04-02T15:48:08.583Z,36.16
2018-04-02T15:50:36.261Z,36.75
2018-04-02T15:53:03.396Z,37.33
2018-04-02T15:55:31.010Z,37.44
2018-04-02T15:57:58.886Z,37.84
2018-04-02T16:00:27.197Z,37.93
2018-04-02T16:02:55.028Z,38.50
2018-04-02T16:05:22.319Z,38.50
2018-04-02T16:07:49.528Z,38.35
2018-04-02T16:10:16.475Z,38.40
2018-04-02T16:12:43.424Z,38.06
2018-04-02T16:15:11.022Z,38.18
2018-04-02T16:17:38.419Z,38.20
2018-04-02T16:20:05.997Z,38.21
2018-04-02T16:22:35.838Z,38.16
2018-04-02T16:25:04.357Z,38.03
2018-04-02T16:27:32.058Z,38.08
2018-04-02T16:29:58.813Z,37.96
2018-04-02T16:32:31.328Z,37.98
2018-04-02T16:35:00.042Z,38.12
2018-04-02T16:37:28.819Z,38.77
2018-04-02T16:39:56.257Z,38.40
2018-04-02T16:42:25.190Z,37.94
2018-04-02T16:44:52.585Z,38.04
2018-04-02T16:47:21.325Z,38.07
2018-04-02T16:49:51.387Z,38.50
2018-04-02T16:52:19.593Z,38.51
2018-04-02T16:54:48.320Z,38.81
2018-04-02T16:57:16.793Z,38.79
2018-04-02T16:59:45.292Z,38.76
2018-04-02T17:02:12.897Z,38.91
2018-04-02T17:04:41.282Z,39.05
2018-04-02T17:07:08.650Z,39.11
2018-04-02T17:09:35.513Z,39.22
2018-04-02T17:12:02.657Z,39.23
2018-04-02T17:14:30.695Z,38.91
2018-04-02T17:16:57.752Z,39.38
2018-04-02T17:21:59.307Z,39.02
2018-04-02T17:24:28.012Z,39.66
2018-04-02T17:26:56.719Z,40.06
2018-04-02T17:29:23.935Z,40.40
2018-04-02T17:31:51.042Z,40.80
2018-04-02T17:34:18.457Z,41.78
2018-04-02T17:36:48.765Z,43.03
2018-04-02T17:39:15.764Z,43.01
2018-04-02T17:41:42.684Z,43.50
2018-04-02T17:44:09.929Z,42.79
2018-04-02T17:46:36.915Z,42.65
2018-04-02T17:49:05.441Z,43.26
2018-04-02T17:51:32.871Z,43.51
2018-04-02T17:54:01.088Z,43.25
2018-04-02T17:56:28.087Z,43.06
2018-04-02T17:58:55.528Z,43.29
2018-04-02T18:01:23.448Z,43.44
2018-04-02T18:03:51.382Z,42.89
2018-04-02T18:06:18.346Z,42.94
2018-04-02T18:08:45.528Z,42.89
2018-04-02T18:11:13.275Z,42.54
2018-04-02T18:13:40.970Z,43.01
2018-04-02T18:16:08.052Z,42.69
2018-04-02T18:18:37.303Z,43.15
2018-04-02T18:21:07.019Z,43.74
2018-04-02T18:23:34.673Z,44.73
2018-04-02T18:26:02.535Z,45.02
2018-04-02T18:28:29.929Z,45.41
2018-04-02T18:30:58.461Z,45.89
2018-04-02T18:33:25.335Z,46.59
2018-04-02T18:35:52.364Z,46.63
2018-04-02T18:38:21.185Z,46.85
2018-04-02T18:40:50.157Z,47.09
2018-04-02T18:43:17.073Z,47.43
2018-04-02T18:45:46.324Z,47.78
2018-04-02T18:48:13.990Z,47.89
2018-04-02T18:50:41.692Z,47.86
2018-04-02T18:53:08.662Z,47.79
2018-04-02T18:55:36.440Z,47.82
2018-04-02T18:58:05.283Z,48.06
2018-04-02T19:00:32.920Z,48.28
2018-04-02T19:03:02.428Z,48.51
2018-04-02T19:05:30.030Z,48.48
2018-04-02T19:07:57.181Z,48.46
2018-04-02T19:10:26.522Z,48.47
2018-04-02T19:12:54.989Z,49.04
2018-04-02T19:15:22.173Z,49.11
2018-04-02T19:17:49.381Z,49.18
2018-04-02T19:20:18.279Z,49.43
2018-04-02T19:22:47.736Z,49.75
2018-04-02T19:25:14.667Z,49.71
2018-04-02T19:27:42.146Z,48.69
2018-04-02T19:30:09.374Z,48.35
2018-04-02T19:32:37.220Z,47.91
2018-04-02T19:35:04.278Z,47.63
2018-04-02T19:37:31.340Z,47.21
2018-04-02T19:39:59.470Z,47.31
2018-04-02T19:42:26.381Z,47.49
2018-04-02T19:44:53.237Z,47.00
2018-04-02T19:47:20.129Z,46.64
2018-04-02T19:49:47.920Z,46.34
2018-04-02T19:52:14.641Z,46.12
2018-04-02T19:54:42.006Z,45.66
2018-04-02T19:57:08.783Z,46.22
2018-04-02T19:59:35.385Z,45.51
2018-04-02T20:02:02.208Z,46.24
2018-04-02T20:04:28.949Z,47.62
2018-04-02T20:06:56.056Z,48.70
2018-04-02T20:09:22.984Z,48.51
2018-04-02T20:11:49.695Z,48.73
2018-04-02T20:14:17.188Z,48.51
2018-04-02T20:16:44.628Z,48.74
2018-04-02T20:19:13.021Z,49.31
2018-04-02T20:21:41.441Z,50.02
2018-04-02T20:24:08.746Z,50.45
2018-04-02T20:26:36.605Z,50.71
2018-04-02T20:29:03.538Z,51.11
2018-04-02T20:31:30.875Z,51.16
2018-04-02T20:33:58.119Z,50.09
2018-04-02T20:36:25.315Z,49.78
2018-04-02T20:38:52.386Z,50.27
2018-04-02T20:41:19.241Z,51.25
2018-04-02T20:43:45.642Z,51.61
2018-04-02T20:46:12.598Z,51.61
2018-04-02T20:48:39.485Z,51.91
2018-04-02T20:51:06.451Z,52.61
2018-04-02T20:53:33.327Z,52.70
2018-04-02T20:56:00.515Z,52.49
2018-04-02T20:58:27.772Z,52.73
2018-04-02T21:00:55.694Z,52.92
2018-04-02T21:03:23.926Z,53.30
2018-04-02T21:05:51.038Z,53.38
2018-04-02T21:08:22.429Z,53.24
2018-04-02T21:10:52.522Z,53.21
2018-04-02T21:13:21.627Z,53.33
2018-04-02T21:15:49.458Z,53.58
2018-04-02T21:18:17.670Z,53.87
2018-04-02T21:20:45.213Z,54.11
2018-04-02T21:23:12.875Z,54.41
2018-04-02T21:25:41.894Z,54.23
2018-04-02T21:28:09.315Z,54.44
2018-04-02T21:30:37.996Z,54.44
2018-04-02T21:33:05.240Z,54.50
2018-04-02T21:35:32.386Z,54.58
2018-04-02T21:37:59.887Z,54.81
2018-04-02T21:40:28.596Z,55.02
2018-04-02T21:42:55.775Z,55.00
2018-04-02T21:45:22.612Z,54.99
2018-04-02T21:47:49.281Z,55.01
2018-04-02T21:50:19.610Z,54.75
2018-04-02T21:52:46.879Z,54.48
2018-04-02T21:55:13.770Z,54.31
2018-04-02T21:57:40.663Z,54.36
2018-04-02T22:00:08.919Z,54.32
2018-04-02T22:02:36.491Z,54.57
2018-04-02T22:05:03.324Z,54.56
2018-04-02T22:07:32.041Z,54.45
2018-04-02T22:09:59.746Z,54.73
2018-04-02T22:12:27.039Z,55.09
2018-04-02T22:14:54.975Z,55.40
2018-04-02T22:17:22.674Z,55.84
2018-04-02T22:19:50.361Z,56.25
2018-04-02T22:22:17.870Z,56.35
2018-04-02T22:24:45.385Z,56.17
2018-04-02T22:27:12.756Z,55.82
2018-04-02T22:29:40.168Z,55.78
2018-04-02T22:32:08.429Z,55.95
2018-04-02T22:34:36.524Z,55.57
2018-04-02T22:37:04.184Z,55.75
2018-04-02T22:39:32.218Z,55.85
2018-04-02T22:41:59.742Z,55.83
2018-04-02T22:44:27.273Z,56.04
2018-04-02T22:46:55.269Z,56.37
2018-04-02T22:49:22.480Z,56.41
2018-04-02T22:51:49.611Z,56.45
2018-04-02T22:54:16.747Z,56.18
2018-04-02T22:56:44.477Z,56.36
2018-04-02T22:59:11.289Z,56.33
2018-04-02T23:01:38.642Z,56.24
2018-04-02T23:04:05.788Z,56.07
2018-04-02T23:06:33.058Z,56.06
2018-04-02T23:09:00.560Z,55.98
2018-04-02T23:11:28.254Z,56.67
2018-04-02T23:13:55.011Z,57.17
2018-04-02T23:16:22.331Z,57.20
2018-04-02T23:18:49.384Z,57.26
2018-04-02T23:21:16.089Z,57.25
2018-04-02T23:23:43.214Z,56.94
2018-04-02T23:26:10.356Z,56.95
2018-04-02T23:28:37.568Z,57.39
2018-04-02T23:31:04.743Z,57.73
2018-04-02T23:33:32.185Z,57.55
2018-04-02T23:35:59.854Z,57.66
2018-04-02T23:38:26.893Z,57.93
2018-04-02T23:40:54.239Z,58.08
2018-04-02T23:43:21.811Z,58.03
2018-04-02T23:45:48.858Z,57.83
2018-04-02T23:48:17.174Z,57.67
2018-04-02T23:50:44.583Z,57.11
2018-04-02T23:53:11.712Z,56.59
2018-04-02T23:55:39.387Z,56.95
2018-04-02T23:58:06.303Z,56.54
